sensor_id;sensor_type;location;lat;lon;timestamp;P1;durP1;ratioP1;P2;durP2;ratioP2
65613;SDS011;52283;49.292;10.572;2022-12-18T00:01:56;66.20;;;24.83;;
65613;SDS011;52283;49.292;10.572;2022-12-18T00:04:25;54.72;;;23.58;;
65613;SDS011;52283;49.292;10.572;2022-12-18T00:06:52;59.47;;;24.88;;
65613;SDS011;52283;49.292;10.572;2022-12-18T00:09:19;53.20;;;24.30;;
65613;SDS011;52283;49.292;10.572;2022-12-18T00:11:46;52.15;;;22.75;;
65613;SDS011;52283;49.292;10.572;2022-12-18T00:14:13;59.55;;;23.90;;
65613;SDS011;52283;49.292;10.572;2022-12-18T00:16:43;47.08;;;21.10;;
65613;SDS011;52283;49.292;10.572;2022-12-18T00:19:10;50.92;;;21.98;;
65613;SDS011;52283;49.292;10.572;2022-12-18T00:21:36;56.22;;;22.73;;
65613;SDS011;52283;49.292;10.572;2022-12-18T00:24:06;54.83;;;21.60;;
65613;SDS011;52283;49.292;10.572;2022-12-18T00:26:33;56.03;;;23.48;;
65613;SDS011;52283;49.292;10.572;2022-12-18T00:29:02;57.13;;;22.02;;
65613;SDS011;52283;49.292;10.572;2022-12-18T00:31:32;51.40;;;21.63;;
65613;SDS011;52283;49.292;10.572;2022-12-18T00:34:00;42.67;;;20.55;;
65613;SDS011;52283;49.292;10.572;2022-12-18T00:36:27;47.60;;;22.25;;
65613;SDS011;52283;49.292;10.572;2022-12-18T00:38:55;38.95;;;18.42;;
65613;SDS011;52283;49.292;10.572;2022-12-18T00:41:23;46.90;;;19.88;;
65613;SDS011;52283;49.292;10.572;2022-12-18T00:44:08;52.33;;;20.35;;
65613;SDS011;52283;49.292;10.572;2022-12-18T00:46:37;46.40;;;19.15;;
65613;SDS011;52283;49.292;10.572;2022-12-18T00:49:04;48.60;;;20.35;;
65613;SDS011;52283;49.292;10.572;2022-12-18T00:51:31;52.83;;;21.27;;
65613;SDS011;52283;49.292;10.572;2022-12-18T00:53:57;42.80;;;19.92;;
65613;SDS011;52283;49.292;10.572;2022-12-18T00:56:24;50.40;;;20.75;;
65613;SDS011;52283;49.292;10.572;2022-12-18T00:58:50;49.33;;;20.05;;
65613;SDS011;52283;49.292;10.572;2022-12-18T01:01:17;54.30;;;22.98;;
65613;SDS011;52283;49.292;10.572;2022-12-18T01:03:45;46.33;;;20.20;;
65613;SDS011;52283;49.292;10.572;2022-12-18T01:06:12;46.88;;;17.60;;
65613;SDS011;52283;49.292;10.572;2022-12-18T01:08:40;48.33;;;18.42;;
65613;SDS011;52283;49.292;10.572;2022-12-18T01:11:07;58.90;;;22.80;;
65613;SDS011;52283;49.292;10.572;2022-12-18T01:13:35;48.60;;;17.80;;
65613;SDS011;52283;49.292;10.572;2022-12-18T01:16:01;57.10;;;21.00;;
65613;SDS011;52283;49.292;10.572;2022-12-18T01:18:28;58.33;;;21.33;;
65613;SDS011;52283;49.292;10.572;2022-12-18T01:20:56;56.65;;;21.58;;
65613;SDS011;52283;49.292;10.572;2022-12-18T01:23:22;52.92;;;19.88;;
65613;SDS011;52283;49.292;10.572;2022-12-18T01:25:49;51.75;;;22.27;;
65613;SDS011;52283;49.292;10.572;2022-12-18T01:28:15;52.15;;;20.83;;
65613;SDS011;52283;49.292;10.572;2022-12-18T01:30:42;66.40;;;24.92;;
65613;SDS011;52283;49.292;10.572;2022-12-18T01:33:08;46.05;;;21.98;;
65613;SDS011;52283;49.292;10.572;2022-12-18T01:35:39;54.58;;;22.50;;
65613;SDS011;52283;49.292;10.572;2022-12-18T01:38:07;47.20;;;21.27;;
65613;SDS011;52283;49.292;10.572;2022-12-18T01:40:34;58.20;;;24.40;;
65613;SDS011;52283;49.292;10.572;2022-12-18T01:43:01;53.40;;;21.92;;
65613;SDS011;52283;49.292;10.572;2022-12-18T01:45:27;75.57;;;22.95;;
65613;SDS011;52283;49.292;10.572;2022-12-18T01:47:55;53.60;;;23.35;;
65613;SDS011;52283;49.292;10.572;2022-12-18T01:50:24;55.78;;;21.77;;
65613;SDS011;52283;49.292;10.572;2022-12-18T01:52:55;41.78;;;19.52;;
65613;SDS011;52283;49.292;10.572;2022-12-18T01:55:26;48.00;;;20.75;;
65613;SDS011;52283;49.292;10.572;2022-12-18T02:00:22;35.60;;;16.70;;
65613;SDS011;52283;49.292;10.572;2022-12-18T02:02:49;55.40;;;22.60;;
65613;SDS011;52283;49.292;10.572;2022-12-18T02:05:17;58.30;;;22.02;;
65613;SDS011;52283;49.292;10.572;2022-12-18T02:07:52;54.20;;;19.92;;
65613;SDS011;52283;49.292;10.572;2022-12-18T02:10:29;56.25;;;20.67;;
65613;SDS011;52283;49.292;10.572;2022-12-18T02:13:02;73.10;;;25.35;;
65613;SDS011;52283;49.292;10.572;2022-12-18T02:15:39;50.88;;;20.02;;
65613;SDS011;52283;49.292;10.572;2022-12-18T02:18:10;76.55;;;25.50;;
65613;SDS011;52283;49.292;10.572;2022-12-18T02:20:41;67.20;;;24.17;;
65613;SDS011;52283;49.292;10.572;2022-12-18T02:23:12;59.13;;;21.58;;
65613;SDS011;52283;49.292;10.572;2022-12-18T02:26:05;63.17;;;21.30;;
65613;SDS011;52283;49.292;10.572;2022-12-18T02:28:37;65.78;;;22.25;;
65613;SDS011;52283;49.292;10.572;2022-12-18T02:31:09;56.33;;;21.48;;
65613;SDS011;52283;49.292;10.572;2022-12-18T02:33:40;56.45;;;20.90;;
65613;SDS011;52283;49.292;10.572;2022-12-18T02:36:08;60.75;;;22.48;;
65613;SDS011;52283;49.292;10.572;2022-12-18T02:38:36;59.58;;;25.00;;
65613;SDS011;52283;49.292;10.572;2022-12-18T02:41:06;61.83;;;23.05;;
65613;SDS011;52283;49.292;10.572;2022-12-18T02:43:33;59.08;;;23.55;;
65613;SDS011;52283;49.292;10.572;2022-12-18T02:46:00;63.42;;;23.42;;
65613;SDS011;52283;49.292;10.572;2022-12-18T02:48:47;62.40;;;21.63;;
65613;SDS011;52283;49.292;10.572;2022-12-18T02:51:17;77.35;;;23.23;;
65613;SDS011;52283;49.292;10.572;2022-12-18T02:53:50;60.65;;;22.70;;
65613;SDS011;52283;49.292;10.572;2022-12-18T02:56:24;52.50;;;20.95;;
65613;SDS011;52283;49.292;10.572;2022-12-18T02:58:57;58.65;;;19.50;;
65613;SDS011;52283;49.292;10.572;2022-12-18T03:01:28;75.38;;;22.75;;
65613;SDS011;52283;49.292;10.572;2022-12-18T03:04:07;67.75;;;21.98;;
65613;SDS011;52283;49.292;10.572;2022-12-18T03:06:59;67.72;;;22.17;;
65613;SDS011;52283;49.292;10.572;2022-12-18T03:09:31;58.13;;;21.25;;
65613;SDS011;52283;49.292;10.572;2022-12-18T03:12:03;62.63;;;23.58;;
65613;SDS011;52283;49.292;10.572;2022-12-18T03:14:52;74.80;;;23.63;;
65613;SDS011;52283;49.292;10.572;2022-12-18T03:17:25;66.18;;;20.88;;
65613;SDS011;52283;49.292;10.572;2022-12-18T03:19:54;47.63;;;19.83;;
65613;SDS011;52283;49.292;10.572;2022-12-18T03:22:24;56.33;;;19.70;;
65613;SDS011;52283;49.292;10.572;2022-12-18T03:24:56;60.80;;;22.13;;
65613;SDS011;52283;49.292;10.572;2022-12-18T03:27:25;73.35;;;20.88;;
65613;SDS011;52283;49.292;10.572;2022-12-18T03:29:56;52.80;;;20.20;;
65613;SDS011;52283;49.292;10.572;2022-12-18T03:32:33;49.35;;;18.55;;
65613;SDS011;52283;49.292;10.572;2022-12-18T03:35:05;51.95;;;18.25;;
65613;SDS011;52283;49.292;10.572;2022-12-18T03:37:34;57.28;;;19.98;;
65613;SDS011;52283;49.292;10.572;2022-12-18T03:40:01;75.20;;;24.05;;
65613;SDS011;52283;49.292;10.572;2022-12-18T03:42:29;61.90;;;20.42;;
65613;SDS011;52283;49.292;10.572;2022-12-18T03:45:06;72.05;;;21.92;;
65613;SDS011;52283;49.292;10.572;2022-12-18T03:47:38;54.38;;;20.25;;
65613;SDS011;52283;49.292;10.572;2022-12-18T03:50:10;55.22;;;19.58;;
65613;SDS011;52283;49.292;10.572;2022-12-18T03:52:41;65.93;;;20.67;;
65613;SDS011;52283;49.292;10.572;2022-12-18T03:55:12;64.60;;;21.13;;
65613;SDS011;52283;49.292;10.572;2022-12-18T03:57:40;55.95;;;19.90;;
65613;SDS011;52283;49.292;10.572;2022-12-18T04:00:10;54.58;;;19.63;;
65613;SDS011;52283;49.292;10.572;2022-12-18T04:02:40;57.70;;;19.85;;
65613;SDS011;52283;49.292;10.572;2022-12-18T04:05:11;41.63;;;13.88;;
65613;SDS011;52283;49.292;10.572;2022-12-18T04:07:38;63.00;;;21.02;;
65613;SDS011;52283;49.292;10.572;2022-12-18T04:10:06;57.47;;;21.30;;
65613;SDS011;52283;49.292;10.572;2022-12-18T04:12:36;56.92;;;19.25;;
65613;SDS011;52283;49.292;10.572;2022-12-18T04:15:05;55.22;;;20.25;;
65613;SDS011;52283;49.292;10.572;2022-12-18T04:17:33;68.78;;;20.65;;
65613;SDS011;52283;49.292;10.572;2022-12-18T04:19:59;59.90;;;20.42;;
65613;SDS011;52283;49.292;10.572;2022-12-18T04:22:25;67.28;;;20.25;;
65613;SDS011;52283;49.292;10.572;2022-12-18T04:24:52;56.00;;;17.38;;
65613;SDS011;52283;49.292;10.572;2022-12-18T04:27:18;54.22;;;17.20;;
65613;SDS011;52283;49.292;10.572;2022-12-18T04:29:45;61.15;;;17.90;;
65613;SDS011;52283;49.292;10.572;2022-12-18T04:32:13;45.95;;;17.15;;
65613;SDS011;52283;49.292;10.572;2022-12-18T04:34:39;51.38;;;18.80;;
65613;SDS011;52283;49.292;10.572;2022-12-18T04:37:06;48.25;;;17.55;;
65613;SDS011;52283;49.292;10.572;2022-12-18T04:39:33;52.38;;;18.77;;
65613;SDS011;52283;49.292;10.572;2022-12-18T04:42:00;50.35;;;19.40;;
65613;SDS011;52283;49.292;10.572;2022-12-18T04:44:27;53.08;;;17.30;;
65613;SDS011;52283;49.292;10.572;2022-12-18T04:46:53;45.97;;;17.20;;
65613;SDS011;52283;49.292;10.572;2022-12-18T04:49:22;36.45;;;13.23;;
65613;SDS011;52283;49.292;10.572;2022-12-18T04:51:48;42.50;;;15.23;;
65613;SDS011;52283;49.292;10.572;2022-12-18T04:54:15;57.63;;;18.52;;
65613;SDS011;52283;49.292;10.572;2022-12-18T04:56:41;56.03;;;16.58;;
65613;SDS011;52283;49.292;10.572;2022-12-18T04:59:08;49.60;;;15.55;;
65613;SDS011;52283;49.292;10.572;2022-12-18T05:01:34;52.40;;;16.90;;
65613;SDS011;52283;49.292;10.572;2022-12-18T05:04:01;47.22;;;15.50;;
65613;SDS011;52283;49.292;10.572;2022-12-18T05:06:29;45.00;;;16.25;;
65613;SDS011;52283;49.292;10.572;2022-12-18T05:08:55;45.17;;;15.52;;
65613;SDS011;52283;49.292;10.572;2022-12-18T05:11:21;42.58;;;15.98;;
65613;SDS011;52283;49.292;10.572;2022-12-18T05:13:48;53.75;;;15.63;;
65613;SDS011;52283;49.292;10.572;2022-12-18T05:16:15;18.60;;;8.35;;
65613;SDS011;52283;49.292;10.572;2022-12-18T05:18:41;56.30;;;17.23;;
65613;SDS011;52283;49.292;10.572;2022-12-18T05:21:08;47.63;;;15.35;;
65613;SDS011;52283;49.292;10.572;2022-12-18T05:23:36;57.45;;;16.48;;
65613;SDS011;52283;49.292;10.572;2022-12-18T05:26:04;42.22;;;13.80;;
65613;SDS011;52283;49.292;10.572;2022-12-18T05:28:33;43.42;;;17.00;;
65613;SDS011;52283;49.292;10.572;2022-12-18T05:31:01;38.65;;;10.77;;
65613;SDS011;52283;49.292;10.572;2022-12-18T05:33:30;60.72;;;16.85;;
65613;SDS011;52283;49.292;10.572;2022-12-18T05:35:58;56.80;;;14.77;;
65613;SDS011;52283;49.292;10.572;2022-12-18T05:38:28;47.25;;;16.30;;
65613;SDS011;52283;49.292;10.572;2022-12-18T05:40:57;46.45;;;16.05;;
65613;SDS011;52283;49.292;10.572;2022-12-18T05:43:24;53.85;;;17.25;;
65613;SDS011;52283;49.292;10.572;2022-12-18T05:45:52;52.03;;;15.98;;
65613;SDS011;52283;49.292;10.572;2022-12-18T05:48:19;41.55;;;13.80;;
65613;SDS011;52283;49.292;10.572;2022-12-18T05:50:46;56.83;;;14.60;;
65613;SDS011;52283;49.292;10.572;2022-12-18T05:53:14;52.08;;;15.52;;
65613;SDS011;52283;49.292;10.572;2022-12-18T05:55:42;30.55;;;10.23;;
65613;SDS011;52283;49.292;10.572;2022-12-18T05:58:11;38.67;;;12.20;;
65613;SDS011;52283;49.292;10.572;2022-12-18T06:00:39;50.47;;;14.55;;
65613;SDS011;52283;49.292;10.572;2022-12-18T06:03:08;48.75;;;15.93;;
65613;SDS011;52283;49.292;10.572;2022-12-18T06:05:35;55.03;;;16.83;;
65613;SDS011;52283;49.292;10.572;2022-12-18T06:08:02;52.20;;;16.23;;
65613;SDS011;52283;49.292;10.572;2022-12-18T06:10:29;27.13;;;9.88;;
65613;SDS011;52283;49.292;10.572;2022-12-18T06:12:56;35.10;;;13.70;;
65613;SDS011;52283;49.292;10.572;2022-12-18T06:15:24;52.97;;;15.25;;
65613;SDS011;52283;49.292;10.572;2022-12-18T06:17:50;30.77;;;9.57;;
65613;SDS011;52283;49.292;10.572;2022-12-18T06:20:17;30.77;;;10.27;;
65613;SDS011;52283;49.292;10.572;2022-12-18T06:22:44;31.48;;;10.55;;
65613;SDS011;52283;49.292;10.572;2022-12-18T06:25:11;41.13;;;12.20;;
65613;SDS011;52283;49.292;10.572;2022-12-18T06:27:37;53.42;;;18.48;;
65613;SDS011;52283;49.292;10.572;2022-12-18T06:30:04;33.60;;;12.07;;
65613;SDS011;52283;49.292;10.572;2022-12-18T06:32:33;35.00;;;11.70;;
65613;SDS011;52283;49.292;10.572;2022-12-18T06:34:59;24.02;;;9.05;;
65613;SDS011;52283;49.292;10.572;2022-12-18T06:37:26;35.50;;;11.50;;
65613;SDS011;52283;49.292;10.572;2022-12-18T06:39:53;51.65;;;16.35;;
65613;SDS011;52283;49.292;10.572;2022-12-18T06:42:22;50.95;;;15.02;;
65613;SDS011;52283;49.292;10.572;2022-12-18T06:44:49;38.15;;;13.55;;
65613;SDS011;52283;49.292;10.572;2022-12-18T06:47:15;45.10;;;13.35;;
65613;SDS011;52283;49.292;10.572;2022-12-18T06:49:43;16.95;;;7.65;;
65613;SDS011;52283;49.292;10.572;2022-12-18T06:52:10;33.40;;;12.18;;
65613;SDS011;52283;49.292;10.572;2022-12-18T06:54:36;40.67;;;13.27;;
65613;SDS011;52283;49.292;10.572;2022-12-18T06:57:03;49.97;;;15.85;;
65613;SDS011;52283;49.292;10.572;2022-12-18T06:59:29;48.70;;;15.02;;
65613;SDS011;52283;49.292;10.572;2022-12-18T07:01:56;44.17;;;12.23;;
65613;SDS011;52283;49.292;10.572;2022-12-18T07:04:26;49.17;;;18.42;;
65613;SDS011;52283;49.292;10.572;2022-12-18T07:06:55;36.65;;;11.95;;
65613;SDS011;52283;49.292;10.572;2022-12-18T07:09:22;46.30;;;12.93;;
65613;SDS011;52283;49.292;10.572;2022-12-18T07:11:49;29.85;;;11.18;;
65613;SDS011;52283;49.292;10.572;2022-12-18T07:14:15;57.35;;;14.75;;
65613;SDS011;52283;49.292;10.572;2022-12-18T07:16:41;49.08;;;13.10;;
65613;SDS011;52283;49.292;10.572;2022-12-18T07:19:08;29.83;;;11.27;;
65613;SDS011;52283;49.292;10.572;2022-12-18T07:21:34;40.85;;;10.75;;
65613;SDS011;52283;49.292;10.572;2022-12-18T07:24:02;35.03;;;13.93;;
65613;SDS011;52283;49.292;10.572;2022-12-18T07:26:29;35.28;;;12.57;;
65613;SDS011;52283;49.292;10.572;2022-12-18T07:28:56;51.28;;;15.70;;
65613;SDS011;52283;49.292;10.572;2022-12-18T07:31:24;46.00;;;12.00;;
65613;SDS011;52283;49.292;10.572;2022-12-18T07:33:51;47.75;;;14.73;;
65613;SDS011;52283;49.292;10.572;2022-12-18T07:36:18;44.28;;;13.55;;
65613;SDS011;52283;49.292;10.572;2022-12-18T07:38:46;36.17;;;13.68;;
65613;SDS011;52283;49.292;10.572;2022-12-18T07:41:15;45.60;;;13.20;;
65613;SDS011;52283;49.292;10.572;2022-12-18T07:43:42;30.30;;;9.27;;
65613;SDS011;52283;49.292;10.572;2022-12-18T07:46:08;35.35;;;11.00;;
65613;SDS011;52283;49.292;10.572;2022-12-18T07:48:35;43.50;;;13.40;;
65613;SDS011;52283;49.292;10.572;2022-12-18T07:51:02;45.67;;;12.68;;
65613;SDS011;52283;49.292;10.572;2022-12-18T07:53:31;43.65;;;13.65;;
65613;SDS011;52283;49.292;10.572;2022-12-18T07:55:58;45.78;;;14.13;;
65613;SDS011;52283;49.292;10.572;2022-12-18T07:58:28;47.40;;;14.27;;
65613;SDS011;52283;49.292;10.572;2022-12-18T08:01:01;41.60;;;12.20;;
65613;SDS011;52283;49.292;10.572;2022-12-18T08:03:29;34.13;;;12.70;;
65613;SDS011;52283;49.292;10.572;2022-12-18T08:05:57;49.10;;;14.93;;
65613;SDS011;52283;49.292;10.572;2022-12-18T08:08:25;42.05;;;13.98;;
65613;SDS011;52283;49.292;10.572;2022-12-18T08:10:51;51.47;;;14.73;;
65613;SDS011;52283;49.292;10.572;2022-12-18T08:13:18;36.28;;;13.65;;
65613;SDS011;52283;49.292;10.572;2022-12-18T08:15:45;63.63;;;19.55;;
65613;SDS011;52283;49.292;10.572;2022-12-18T08:18:12;55.65;;;23.85;;
65613;SDS011;52283;49.292;10.572;2022-12-18T08:20:38;39.92;;;14.70;;
65613;SDS011;52283;49.292;10.572;2022-12-18T08:23:08;46.65;;;16.98;;
65613;SDS011;52283;49.292;10.572;2022-12-18T08:25:34;45.20;;;14.40;;
65613;SDS011;52283;49.292;10.572;2022-12-18T08:28:01;58.20;;;17.75;;
65613;SDS011;52283;49.292;10.572;2022-12-18T08:30:27;42.88;;;14.50;;
65613;SDS011;52283;49.292;10.572;2022-12-18T08:32:55;47.38;;;14.05;;
65613;SDS011;52283;49.292;10.572;2022-12-18T08:35:21;36.72;;;14.07;;
65613;SDS011;52283;49.292;10.572;2022-12-18T08:37:48;34.92;;;11.55;;
65613;SDS011;52283;49.292;10.572;2022-12-18T08:40:14;40.20;;;12.90;;
65613;SDS011;52283;49.292;10.572;2022-12-18T08:42:41;40.33;;;11.60;;
65613;SDS011;52283;49.292;10.572;2022-12-18T08:45:25;51.78;;;16.20;;
65613;SDS011;52283;49.292;10.572;2022-12-18T08:47:51;40.00;;;14.07;;
65613;SDS011;52283;49.292;10.572;2022-12-18T08:50:19;39.38;;;13.02;;
65613;SDS011;52283;49.292;10.572;2022-12-18T08:52:46;28.55;;;10.95;;
65613;SDS011;52283;49.292;10.572;2022-12-18T08:55:12;38.85;;;12.93;;
65613;SDS011;52283;49.292;10.572;2022-12-18T08:57:39;47.95;;;16.42;;
65613;SDS011;52283;49.292;10.572;2022-12-18T09:00:06;42.90;;;15.70;;
65613;SDS011;52283;49.292;10.572;2022-12-18T09:02:33;44.50;;;13.82;;
65613;SDS011;52283;49.292;10.572;2022-12-18T09:05:00;43.35;;;13.52;;
65613;SDS011;52283;49.292;10.572;2022-12-18T09:07:27;52.00;;;14.15;;
65613;SDS011;52283;49.292;10.572;2022-12-18T09:09:54;52.03;;;14.43;;
65613;SDS011;52283;49.292;10.572;2022-12-18T09:12:20;40.88;;;15.48;;
65613;SDS011;52283;49.292;10.572;2022-12-18T09:14:47;52.88;;;16.25;;
65613;SDS011;52283;49.292;10.572;2022-12-18T09:17:13;40.67;;;14.38;;
65613;SDS011;52283;49.292;10.572;2022-12-18T09:19:40;32.80;;;11.95;;
65613;SDS011;52283;49.292;10.572;2022-12-18T09:22:06;34.22;;;15.30;;
65613;SDS011;52283;49.292;10.572;2022-12-18T09:24:34;35.95;;;12.30;;
65613;SDS011;52283;49.292;10.572;2022-12-18T09:27:00;46.05;;;14.52;;
65613;SDS011;52283;49.292;10.572;2022-12-18T09:29:27;37.38;;;13.32;;
65613;SDS011;52283;49.292;10.572;2022-12-18T09:31:53;31.90;;;11.98;;
65613;SDS011;52283;49.292;10.572;2022-12-18T09:34:20;50.47;;;15.57;;
65613;SDS011;52283;49.292;10.572;2022-12-18T09:36:46;33.35;;;13.13;;
65613;SDS011;52283;49.292;10.572;2022-12-18T09:39:13;48.58;;;14.68;;
65613;SDS011;52283;49.292;10.572;2022-12-18T09:41:45;42.97;;;15.95;;
65613;SDS011;52283;49.292;10.572;2022-12-18T09:44:19;42.33;;;13.82;;
65613;SDS011;52283;49.292;10.572;2022-12-18T09:46:51;38.67;;;13.85;;
65613;SDS011;52283;49.292;10.572;2022-12-18T09:49:23;45.40;;;14.77;;
65613;SDS011;52283;49.292;10.572;2022-12-18T09:51:55;41.17;;;14.27;;
65613;SDS011;52283;49.292;10.572;2022-12-18T09:54:26;45.03;;;15.85;;
65613;SDS011;52283;49.292;10.572;2022-12-18T09:57:00;44.10;;;13.43;;
65613;SDS011;52283;49.292;10.572;2022-12-18T09:59:27;44.33;;;15.05;;
65613;SDS011;52283;49.292;10.572;2022-12-18T10:01:57;49.08;;;15.70;;
65613;SDS011;52283;49.292;10.572;2022-12-18T10:04:32;33.83;;;10.70;;
65613;SDS011;52283;49.292;10.572;2022-12-18T10:07:00;39.88;;;12.85;;
65613;SDS011;52283;49.292;10.572;2022-12-18T10:09:33;37.05;;;14.32;;
65613;SDS011;52283;49.292;10.572;2022-12-18T10:12:12;35.78;;;12.60;;
65613;SDS011;52283;49.292;10.572;2022-12-18T10:14:46;36.35;;;11.35;;
65613;SDS011;52283;49.292;10.572;2022-12-18T10:17:23;35.55;;;13.38;;
65613;SDS011;52283;49.292;10.572;2022-12-18T10:19:52;37.85;;;13.57;;
65613;SDS011;52283;49.292;10.572;2022-12-18T10:25:15;37.03;;;11.95;;
65613;SDS011;52283;49.292;10.572;2022-12-18T10:27:49;40.70;;;12.70;;
65613;SDS011;52283;49.292;10.572;2022-12-18T10:30:19;36.40;;;12.80;;
65613;SDS011;52283;49.292;10.572;2022-12-18T10:32:47;33.67;;;11.95;;
65613;SDS011;52283;49.292;10.572;2022-12-18T10:35:15;34.92;;;13.25;;
65613;SDS011;52283;49.292;10.572;2022-12-18T10:38:05;37.58;;;12.43;;
65613;SDS011;52283;49.292;10.572;2022-12-18T10:40:33;46.35;;;13.63;;
65613;SDS011;52283;49.292;10.572;2022-12-18T10:43:15;28.95;;;12.38;;
65613;SDS011;52283;49.292;10.572;2022-12-18T10:45:57;19.88;;;7.97;;
65613;SDS011;52283;49.292;10.572;2022-12-18T10:48:26;33.93;;;11.73;;
65613;SDS011;52283;49.292;10.572;2022-12-18T10:50:53;34.83;;;12.80;;
65613;SDS011;52283;49.292;10.572;2022-12-18T10:53:22;33.63;;;12.88;;
65613;SDS011;52283;49.292;10.572;2022-12-18T10:55:51;38.33;;;12.40;;
65613;SDS011;52283;49.292;10.572;2022-12-18T10:58:23;36.20;;;12.38;;
65613;SDS011;52283;49.292;10.572;2022-12-18T11:01:08;34.47;;;13.80;;
65613;SDS011;52283;49.292;10.572;2022-12-18T11:03:36;40.17;;;13.02;;
65613;SDS011;52283;49.292;10.572;2022-12-18T11:06:04;33.28;;;13.43;;
65613;SDS011;52283;49.292;10.572;2022-12-18T11:08:33;36.70;;;12.48;;
65613;SDS011;52283;49.292;10.572;2022-12-18T11:11:00;34.70;;;11.90;;
65613;SDS011;52283;49.292;10.572;2022-12-18T11:13:29;34.22;;;12.40;;
65613;SDS011;52283;49.292;10.572;2022-12-18T11:15:57;37.70;;;13.90;;
65613;SDS011;52283;49.292;10.572;2022-12-18T11:18:25;36.30;;;13.35;;
65613;SDS011;52283;49.292;10.572;2022-12-18T11:20:55;27.98;;;11.75;;
65613;SDS011;52283;49.292;10.572;2022-12-18T11:23:23;33.00;;;12.80;;
65613;SDS011;52283;49.292;10.572;2022-12-18T11:25:51;33.88;;;12.57;;
65613;SDS011;52283;49.292;10.572;2022-12-18T11:28:37;29.75;;;11.05;;
65613;SDS011;52283;49.292;10.572;2022-12-18T11:31:20;21.25;;;9.15;;
65613;SDS011;52283;49.292;10.572;2022-12-18T11:33:51;26.70;;;10.20;;
65613;SDS011;52283;49.292;10.572;2022-12-18T11:36:23;36.28;;;11.88;;
65613;SDS011;52283;49.292;10.572;2022-12-18T11:38:50;29.98;;;12.38;;
65613;SDS011;52283;49.292;10.572;2022-12-18T11:41:21;36.53;;;12.80;;
65613;SDS011;52283;49.292;10.572;2022-12-18T11:44:14;31.20;;;13.68;;
65613;SDS011;52283;49.292;10.572;2022-12-18T11:46:46;39.38;;;13.45;;
65613;SDS011;52283;49.292;10.572;2022-12-18T11:49:18;41.15;;;13.00;;
65613;SDS011;52283;49.292;10.572;2022-12-18T11:51:50;40.28;;;14.25;;
65613;SDS011;52283;49.292;10.572;2022-12-18T11:54:21;24.27;;;10.55;;
65613;SDS011;52283;49.292;10.572;2022-12-18T11:56:49;40.30;;;14.13;;
65613;SDS011;52283;49.292;10.572;2022-12-18T11:59:23;37.25;;;12.05;;
65613;SDS011;52283;49.292;10.572;2022-12-18T12:01:59;37.28;;;15.00;;
65613;SDS011;52283;49.292;10.572;2022-12-18T12:04:45;42.53;;;13.88;;
65613;SDS011;52283;49.292;10.572;2022-12-18T12:07:23;34.20;;;12.82;;
65613;SDS011;52283;49.292;10.572;2022-12-18T12:10:03;36.58;;;14.80;;
65613;SDS011;52283;49.292;10.572;2022-12-18T12:12:39;32.63;;;11.98;;
65613;SDS011;52283;49.292;10.572;2022-12-18T12:15:26;23.83;;;11.07;;
65613;SDS011;52283;49.292;10.572;2022-12-18T12:18:01;33.30;;;13.50;;
65613;SDS011;52283;49.292;10.572;2022-12-18T12:20:42;31.70;;;11.90;;
65613;SDS011;52283;49.292;10.572;2022-12-18T12:23:18;34.28;;;11.35;;
65613;SDS011;52283;49.292;10.572;2022-12-18T12:25:54;31.30;;;13.68;;
65613;SDS011;52283;49.292;10.572;2022-12-18T12:28:30;39.25;;;13.32;;
65613;SDS011;52283;49.292;10.572;2022-12-18T12:31:11;37.78;;;13.45;;
65613;SDS011;52283;49.292;10.572;2022-12-18T12:33:47;39.10;;;14.25;;
65613;SDS011;52283;49.292;10.572;2022-12-18T12:36:25;37.92;;;13.15;;
65613;SDS011;52283;49.292;10.572;2022-12-18T12:39:02;36.10;;;12.75;;
65613;SDS011;52283;49.292;10.572;2022-12-18T12:41:34;33.28;;;13.98;;
65613;SDS011;52283;49.292;10.572;2022-12-18T12:44:20;39.30;;;13.68;;
65613;SDS011;52283;49.292;10.572;2022-12-18T12:46:51;44.80;;;16.47;;
65613;SDS011;52283;49.292;10.572;2022-12-18T12:49:21;36.13;;;15.50;;
65613;SDS011;52283;49.292;10.572;2022-12-18T12:51:53;37.80;;;14.68;;
65613;SDS011;52283;49.292;10.572;2022-12-18T12:54:25;29.67;;;11.20;;
65613;SDS011;52283;49.292;10.572;2022-12-18T12:56:54;37.58;;;14.23;;
65613;SDS011;52283;49.292;10.572;2022-12-18T12:59:29;36.55;;;13.18;;
65613;SDS011;52283;49.292;10.572;2022-12-18T13:02:05;31.80;;;12.60;;
65613;SDS011;52283;49.292;10.572;2022-12-18T13:04:45;43.08;;;15.80;;
65613;SDS011;52283;49.292;10.572;2022-12-18T13:07:16;38.25;;;14.35;;
65613;SDS011;52283;49.292;10.572;2022-12-18T13:12:56;34.80;;;13.85;;
65613;SDS011;52283;49.292;10.572;2022-12-18T13:15:23;39.17;;;14.98;;
65613;SDS011;52283;49.292;10.572;2022-12-18T13:18:03;41.27;;;14.83;;
65613;SDS011;52283;49.292;10.572;2022-12-18T13:20:37;32.67;;;12.57;;
65613;SDS011;52283;49.292;10.572;2022-12-18T13:23:19;30.48;;;12.57;;
65613;SDS011;52283;49.292;10.572;2022-12-18T13:25:52;39.08;;;14.43;;
65613;SDS011;52283;49.292;10.572;2022-12-18T13:28:20;32.40;;;14.02;;
65613;SDS011;52283;49.292;10.572;2022-12-18T13:30:50;39.40;;;14.85;;
65613;SDS011;52283;49.292;10.572;2022-12-18T13:36:09;39.90;;;15.13;;
65613;SDS011;52283;49.292;10.572;2022-12-18T13:38:40;44.90;;;14.50;;
65613;SDS011;52283;49.292;10.572;2022-12-18T13:41:24;34.08;;;13.15;;
65613;SDS011;52283;49.292;10.572;2022-12-18T13:43:52;44.47;;;15.85;;
65613;SDS011;52283;49.292;10.572;2022-12-18T13:46:24;43.03;;;14.57;;
65613;SDS011;52283;49.292;10.572;2022-12-18T13:48:57;36.83;;;12.77;;
65613;SDS011;52283;49.292;10.572;2022-12-18T13:51:26;43.28;;;15.32;;
65613;SDS011;52283;49.292;10.572;2022-12-18T13:53:55;49.22;;;17.58;;
65613;SDS011;52283;49.292;10.572;2022-12-18T13:56:24;40.28;;;15.35;;
65613;SDS011;52283;49.292;10.572;2022-12-18T13:59:15;31.42;;;13.38;;
65613;SDS011;52283;49.292;10.572;2022-12-18T14:01:44;39.45;;;15.10;;
65613;SDS011;52283;49.292;10.572;2022-12-18T14:04:18;40.30;;;15.57;;
65613;SDS011;52283;49.292;10.572;2022-12-18T14:06:47;43.38;;;14.32;;
65613;SDS011;52283;49.292;10.572;2022-12-18T14:09:19;40.53;;;14.02;;
65613;SDS011;52283;49.292;10.572;2022-12-18T14:11:49;39.10;;;14.18;;
65613;SDS011;52283;49.292;10.572;2022-12-18T14:14:17;43.97;;;15.70;;
65613;SDS011;52283;49.292;10.572;2022-12-18T14:16:45;33.60;;;13.18;;
65613;SDS011;52283;49.292;10.572;2022-12-18T14:19:13;49.13;;;15.73;;
65613;SDS011;52283;49.292;10.572;2022-12-18T14:21:46;49.03;;;16.83;;
65613;SDS011;52283;49.292;10.572;2022-12-18T14:24:14;33.78;;;12.38;;
65613;SDS011;52283;49.292;10.572;2022-12-18T14:26:42;36.35;;;15.27;;
65613;SDS011;52283;49.292;10.572;2022-12-18T14:29:19;34.33;;;14.77;;
65613;SDS011;52283;49.292;10.572;2022-12-18T14:34:33;43.97;;;14.30;;
65613;SDS011;52283;49.292;10.572;2022-12-18T14:37:00;38.60;;;14.48;;
65613;SDS011;52283;49.292;10.572;2022-12-18T14:39:27;39.75;;;14.48;;